createdAt,value
2023-05-14T00:00:45.400Z,19.35
2023-05-14T00:03:12.233Z,17.85
2023-05-14T00:05:39.224Z,17.35
2023-05-14T00:08:06.288Z,17.53
2023-05-14T00:10:32.905Z,19.08
2023-05-14T00:12:59.913Z,19.60
2023-05-14T00:15:26.777Z,19.15
2023-05-14T00:17:53.363Z,21.30
2023-05-14T00:20:20.027Z,17.97
2023-05-14T00:22:46.461Z,19.95
2023-05-14T00:25:12.969Z,20.05
2023-05-14T00:27:39.536Z,18.90
2023-05-14T00:30:07.136Z,20.25
2023-05-14T00:32:33.775Z,22.20
2023-05-14T00:35:00.500Z,20.77
2023-05-14T00:37:27.007Z,24.20
2023-05-14T00:39:53.669Z,20.63
2023-05-14T00:42:20.428Z,22.02
2023-05-14T00:44:47.144Z,18.77
2023-05-14T00:47:13.975Z,21.25
2023-05-14T00:49:41.178Z,21.20
2023-05-14T00:52:07.694Z,18.60
2023-05-14T00:54:34.662Z,20.00
2023-05-14T00:57:01.364Z,21.20
2023-05-14T00:59:27.914Z,20.23
2023-05-14T01:01:54.865Z,20.88
2023-05-14T01:04:21.319Z,21.05
2023-05-14T01:07:11.063Z,18.17
2023-05-14T01:09:56.380Z,19.77
2023-05-14T01:12:41.525Z,18.63
2023-05-14T01:15:10.944Z,24.88
2023-05-14T01:17:41.558Z,22.73
2023-05-14T01:20:08.443Z,17.70
2023-05-14T01:22:34.866Z,17.73
2023-05-14T01:25:01.287Z,18.48
2023-05-14T01:27:46.585Z,17.27
2023-05-14T01:30:12.969Z,19.63
2023-05-14T01:32:40.641Z,18.05
2023-05-14T01:35:08.065Z,18.30
2023-05-14T01:37:35.039Z,18.55
2023-05-14T01:40:02.081Z,17.15
2023-05-14T01:42:28.691Z,18.05
2023-05-14T01:44:55.607Z,16.73
2023-05-14T01:47:22.212Z,16.07
2023-05-14T01:49:48.693Z,15.88
2023-05-14T01:52:15.106Z,17.73
2023-05-14T01:54:41.587Z,18.67
2023-05-14T01:57:08.205Z,17.23
2023-05-14T01:59:34.686Z,18.20
2023-05-14T02:02:01.159Z,15.85
2023-05-14T02:04:27.656Z,17.95
2023-05-14T02:06:54.308Z,15.65
2023-05-14T02:09:20.937Z,17.63
2023-05-14T02:11:47.349Z,16.80
2023-05-14T02:14:15.382Z,17.23
2023-05-14T02:16:42.071Z,19.20
2023-05-14T02:19:08.811Z,15.65
2023-05-14T02:21:35.494Z,17.55
2023-05-14T02:24:01.980Z,17.37
2023-05-14T02:26:28.406Z,17.58
2023-05-14T02:28:55.259Z,17.25
2023-05-14T02:31:21.799Z,20.13
2023-05-14T02:33:48.518Z,17.83
2023-05-14T02:36:15.626Z,15.83
2023-05-14T02:38:42.062Z,15.75
2023-05-14T02:41:08.595Z,16.20
2023-05-14T02:43:35.070Z,16.88
2023-05-14T02:46:01.752Z,16.65
2023-05-14T02:48:28.200Z,15.87
2023-05-14T02:50:54.650Z,14.60
2023-05-14T02:53:21.041Z,16.48
2023-05-14T02:55:47.477Z,15.38
2023-05-14T02:58:13.934Z,16.33
2023-05-14T03:00:40.362Z,15.97
2023-05-14T03:03:07.544Z,16.33
2023-05-14T03:05:34.446Z,15.82
2023-05-14T03:08:01.041Z,15.13
2023-05-14T03:10:27.493Z,17.23
2023-05-14T03:12:54.242Z,15.77
2023-05-14T03:15:20.664Z,17.17
2023-05-14T03:17:48.186Z,16.30
2023-05-14T03:20:14.610Z,14.57
2023-05-14T03:22:40.993Z,16.85
2023-05-14T03:25:08.205Z,15.50
2023-05-14T03:27:34.717Z,16.33
2023-05-14T03:30:01.174Z,16.45
2023-05-14T03:32:27.622Z,15.90
2023-05-14T03:34:54.098Z,16.50
2023-05-14T03:37:20.670Z,16.90
2023-05-14T03:39:47.189Z,16.50
2023-05-14T03:42:13.584Z,17.50
2023-05-14T03:44:40.753Z,16.05
2023-05-14T03:47:07.220Z,15.77
2023-05-14T03:49:33.573Z,17.33
2023-05-14T03:52:00.114Z,16.20
2023-05-14T03:54:26.820Z,21.25
2023-05-14T03:56:53.203Z,17.17
2023-05-14T03:59:19.591Z,18.30
2023-05-14T04:01:46.056Z,17.23
2023-05-14T04:04:12.578Z,16.77
2023-05-14T04:06:39.072Z,18.50
2023-05-14T04:09:05.513Z,18.05
2023-05-14T04:11:31.931Z,17.35
2023-05-14T04:13:58.273Z,17.37
2023-05-14T04:16:24.788Z,16.73
2023-05-14T04:18:51.279Z,16.67
2023-05-14T04:21:17.744Z,17.75
2023-05-14T04:23:44.216Z,17.95
2023-05-14T04:26:10.684Z,16.73
2023-05-14T04:28:37.150Z,15.85
2023-05-14T04:31:03.877Z,16.70
2023-05-14T04:33:30.324Z,15.85
2023-05-14T04:35:56.886Z,16.85
2023-05-14T04:38:23.307Z,15.40
2023-05-14T04:40:49.726Z,16.63
2023-05-14T04:43:17.542Z,16.50
2023-05-14T04:45:43.995Z,17.60
2023-05-14T04:48:10.545Z,18.23
2023-05-14T04:50:36.986Z,16.83
2023-05-14T04:53:03.427Z,17.10
2023-05-14T04:55:30.028Z,18.70
2023-05-14T04:57:56.591Z,18.70
2023-05-14T05:00:23.490Z,18.60
2023-05-14T05:02:50.204Z,18.37
2023-05-14T05:05:16.846Z,16.85
2023-05-14T05:07:43.265Z,19.15
2023-05-14T05:10:09.830Z,19.20
2023-05-14T05:12:36.258Z,19.75
2023-05-14T05:15:02.656Z,18.20
2023-05-14T05:17:29.320Z,19.48
2023-05-14T05:19:55.772Z,19.65
2023-05-14T05:22:22.316Z,18.08
2023-05-14T05:24:49.961Z,17.75
2023-05-14T05:27:16.643Z,18.77
2023-05-14T05:29:43.956Z,18.90
2023-05-14T05:32:10.567Z,19.33
2023-05-14T05:34:37.067Z,16.90
2023-05-14T05:37:03.699Z,18.17
2023-05-14T05:39:35.082Z,17.53
2023-05-14T05:42:02.694Z,18.75
2023-05-14T05:44:29.284Z,17.38
2023-05-14T05:46:57.497Z,17.25
2023-05-14T05:49:24.226Z,16.45
2023-05-14T05:51:50.816Z,16.60
2023-05-14T05:54:17.388Z,17.70
2023-05-14T05:56:43.832Z,17.48
2023-05-14T05:59:10.317Z,18.50
2023-05-14T06:01:37.039Z,18.80
2023-05-14T06:04:05.808Z,15.93
2023-05-14T06:06:33.012Z,16.90
2023-05-14T06:08:59.558Z,16.52
2023-05-14T06:11:26.618Z,15.05
2023-05-14T06:13:53.086Z,15.50
2023-05-14T06:16:19.682Z,15.73
2023-05-14T06:18:46.621Z,17.35
2023-05-14T06:21:13.038Z,17.02
2023-05-14T06:23:39.453Z,16.20
2023-05-14T06:26:05.894Z,16.10
2023-05-14T06:28:32.351Z,17.73
2023-05-14T06:30:58.805Z,17.77
2023-05-14T06:33:30.788Z,16.83
2023-05-14T06:36:01.151Z,18.02
2023-05-14T06:38:27.606Z,16.48
2023-05-14T06:40:54.242Z,15.10
2023-05-14T06:43:20.922Z,15.00
2023-05-14T06:45:51.012Z,16.88
2023-05-14T06:48:18.873Z,15.88
2023-05-14T06:50:45.907Z,17.23
2023-05-14T06:53:12.484Z,15.30
2023-05-14T06:55:39.057Z,20.50
2023-05-14T06:58:08.688Z,20.48
2023-05-14T07:00:35.282Z,16.30
2023-05-14T07:03:01.885Z,17.10
2023-05-14T07:05:28.593Z,17.80
2023-05-14T07:07:55.292Z,14.90
2023-05-14T07:10:22.477Z,19.75
2023-05-14T07:12:49.242Z,16.15
2023-05-14T07:15:15.857Z,15.20
2023-05-14T07:17:42.496Z,15.57
2023-05-14T07:20:09.268Z,16.10
2023-05-14T07:22:35.766Z,17.15
2023-05-14T07:25:03.029Z,16.75
2023-05-14T07:27:29.495Z,16.52
2023-05-14T07:29:56.065Z,16.27
2023-05-14T07:32:22.546Z,15.43
2023-05-14T07:34:49.202Z,21.02
2023-05-14T07:37:15.685Z,19.08
2023-05-14T07:39:42.215Z,17.83
2023-05-14T07:42:09.177Z,17.90
2023-05-14T07:44:35.717Z,16.08
2023-05-14T07:47:02.140Z,19.50
2023-05-14T07:49:28.995Z,18.83
2023-05-14T07:51:55.472Z,19.30
2023-05-14T07:54:21.909Z,18.93
2023-05-14T07:56:48.391Z,17.83
2023-05-14T07:59:14.846Z,19.35
2023-05-14T08:01:41.699Z,17.95
2023-05-14T08:04:08.432Z,17.75
2023-05-14T08:06:35.048Z,16.57
2023-05-14T08:09:01.480Z,18.42
2023-05-14T08:11:27.946Z,17.30
2023-05-14T08:13:54.368Z,17.65
2023-05-14T08:16:20.945Z,16.27
2023-05-14T08:18:47.496Z,15.20
2023-05-14T08:21:13.950Z,15.48
2023-05-14T08:23:40.515Z,16.50
2023-05-14T08:26:07.298Z,16.77
2023-05-14T08:28:33.727Z,18.10
2023-05-14T08:31:00.431Z,15.83
2023-05-14T08:33:26.972Z,16.60
2023-05-14T08:35:53.565Z,18.80
2023-05-14T08:38:20.056Z,16.42
2023-05-14T08:40:54.183Z,18.15
2023-05-14T08:43:24.698Z,17.53
2023-05-14T08:45:54.176Z,18.13
2023-05-14T08:48:21.534Z,19.92
2023-05-14T08:50:48.139Z,18.02
2023-05-14T08:53:14.647Z,17.92
2023-05-14T08:55:41.640Z,19.27
2023-05-14T08:58:08.074Z,18.27
2023-05-14T09:00:35.168Z,17.98
2023-05-14T09:03:02.044Z,17.35
2023-05-14T09:05:28.895Z,17.88
2023-05-14T09:07:55.462Z,14.83
2023-05-14T09:10:22.489Z,15.27
2023-05-14T09:12:49.333Z,15.40
2023-05-14T09:15:15.885Z,14.23
2023-05-14T09:17:43.121Z,13.93
2023-05-14T09:20:09.927Z,13.87
2023-05-14T09:22:36.453Z,15.13
2023-05-14T09:25:04.075Z,15.15
2023-05-14T09:27:31.954Z,15.48
2023-05-14T09:30:05.029Z,14.05
2023-05-14T09:32:38.330Z,15.27
2023-05-14T09:35:12.027Z,14.75
2023-05-14T09:37:41.790Z,16.02
2023-05-14T09:40:09.249Z,14.27
2023-05-14T09:42:35.769Z,14.90
2023-05-14T09:45:04.692Z,15.37
2023-05-14T09:47:32.922Z,15.27
2023-05-14T09:49:59.492Z,16.23
2023-05-14T09:52:26.284Z,15.65
2023-05-14T09:54:53.210Z,16.38
2023-05-14T09:57:20.146Z,14.60
2023-05-14T09:59:46.782Z,16.05
2023-05-14T10:02:16.686Z,17.30
2023-05-14T10:04:43.965Z,16.13
2023-05-14T10:07:11.035Z,16.10
2023-05-14T10:09:39.324Z,17.27
2023-05-14T10:12:06.095Z,16.27
2023-05-14T10:14:35.351Z,17.38
2023-05-14T10:17:01.896Z,16.27
2023-05-14T10:19:32.577Z,16.80
2023-05-14T10:22:07.066Z,17.00
2023-05-14T10:24:34.269Z,15.98
2023-05-14T10:27:01.541Z,15.35
2023-05-14T10:29:34.849Z,15.43
2023-05-14T10:32:04.340Z,16.17
2023-05-14T10:34:32.478Z,16.60
2023-05-14T10:36:59.850Z,16.42
2023-05-14T10:39:40.216Z,17.50
2023-05-14T10:42:07.006Z,16.45
2023-05-14T10:44:35.165Z,16.67
2023-05-14T10:47:02.384Z,16.87
2023-05-14T10:49:39.889Z,15.23
2023-05-14T10:52:10.644Z,17.58
2023-05-14T10:54:37.236Z,16.70
2023-05-14T10:57:03.920Z,16.65
2023-05-14T10:59:30.580Z,15.83
2023-05-14T11:01:57.353Z,16.60
2023-05-14T11:04:24.723Z,16.38
2023-05-14T11:06:53.548Z,15.63
2023-05-14T11:09:20.743Z,17.15
2023-05-14T11:11:47.754Z,15.83
2023-05-14T11:14:14.397Z,15.48
2023-05-14T11:16:41.568Z,16.45
2023-05-14T11:19:08.128Z,15.52
2023-05-14T11:21:34.616Z,17.67
2023-05-14T11:24:01.855Z,17.07
2023-05-14T11:26:28.408Z,16.08
2023-05-14T11:28:54.875Z,16.95
2023-05-14T11:31:22.174Z,15.68
2023-05-14T11:33:48.710Z,15.57
2023-05-14T11:36:15.287Z,18.30
2023-05-14T11:38:52.316Z,15.25
2023-05-14T11:41:21.620Z,17.27
2023-05-14T11:43:48.382Z,16.63
2023-05-14T11:46:22.412Z,16.38
2023-05-14T11:48:49.222Z,17.33
2023-05-14T11:51:15.848Z,16.70
2023-05-14T11:53:42.472Z,18.85
2023-05-14T11:56:10.001Z,18.15
2023-05-14T11:58:36.735Z,17.90
2023-05-14T12:01:03.334Z,17.23
2023-05-14T12:03:30.948Z,17.38
2023-05-14T12:05:58.862Z,17.88
2023-05-14T12:08:29.653Z,17.95
2023-05-14T12:10:57.944Z,17.85
2023-05-14T12:13:27.940Z,17.17
2023-05-14T12:15:56.316Z,18.02
2023-05-14T12:18:25.306Z,18.20
2023-05-14T12:20:52.255Z,18.65
2023-05-14T12:23:31.012Z,17.77
2023-05-14T12:26:06.518Z,18.13
2023-05-14T12:28:34.901Z,18.02
2023-05-14T12:31:03.657Z,18.33
2023-05-14T12:33:30.174Z,19.20
2023-05-14T12:36:17.565Z,18.05
2023-05-14T12:38:48.097Z,19.30
2023-05-14T12:41:14.516Z,18.35
2023-05-14T12:43:42.768Z,17.23
2023-05-14T12:46:09.187Z,18.67
2023-05-14T12:48:36.001Z,18.50
2023-05-14T12:51:02.479Z,19.30
2023-05-14T12:53:29.058Z,17.70
2023-05-14T12:55:55.528Z,18.80
2023-05-14T12:58:21.939Z,19.42
2023-05-14T13:00:48.445Z,19.58
2023-05-14T13:03:14.999Z,18.90
2023-05-14T13:05:41.515Z,19.98
2023-05-14T13:08:09.750Z,21.20
2023-05-14T13:10:36.170Z,21.48
2023-05-14T13:13:02.680Z,18.90
2023-05-14T13:15:29.308Z,18.73
2023-05-14T13:17:55.842Z,19.23
2023-05-14T13:20:23.636Z,20.42
2023-05-14T13:22:50.122Z,18.50
2023-05-14T13:25:16.632Z,19.85
2023-05-14T13:27:43.032Z,17.23
2023-05-14T13:30:09.683Z,18.33
2023-05-14T13:32:36.243Z,20.48
2023-05-14T13:35:02.821Z,17.73
2023-05-14T13:37:29.263Z,18.58
2023-05-14T13:39:55.790Z,18.10
2023-05-14T13:42:22.287Z,18.50
2023-05-14T13:44:48.774Z,18.77
2023-05-14T13:47:15.327Z,17.98
2023-05-14T13:49:41.766Z,18.88
2023-05-14T13:52:08.252Z,16.90
2023-05-14T13:54:34.776Z,16.90
2023-05-14T13:57:01.309Z,17.48
2023-05-14T13:59:28.044Z,16.95
2023-05-14T14:01:54.720Z,18.73
2023-05-14T14:04:22.221Z,18.70
2023-05-14T14:06:48.981Z,15.25
2023-05-14T14:09:15.454Z,15.02
2023-05-14T14:11:41.989Z,15.05
2023-05-14T14:14:08.464Z,15.55
2023-05-14T14:16:35.179Z,14.70
2023-05-14T14:19:01.797Z,14.77
2023-05-14T14:21:28.322Z,14.88
2023-05-14T14:23:54.898Z,16.65
2023-05-14T14:26:21.421Z,15.52
2023-05-14T14:28:47.849Z,17.07
2023-05-14T14:31:14.409Z,15.45
2023-05-14T14:33:41.105Z,15.43
2023-05-14T14:36:07.653Z,16.08
2023-05-14T14:38:34.142Z,14.38
2023-05-14T14:41:03.174Z,14.20
2023-05-14T14:43:29.750Z,13.65
2023-05-14T14:45:56.225Z,14.45
2023-05-14T14:48:27.184Z,13.52
2023-05-14T14:50:54.416Z,13.15
2023-05-14T14:53:21.648Z,12.27
2023-05-14T14:55:48.800Z,12.77
2023-05-14T14:58:15.302Z,12.48
2023-05-14T15:00:41.868Z,12.73
2023-05-14T15:03:09.834Z,12.75
2023-05-14T15:05:36.534Z,12.43
2023-05-14T15:08:02.985Z,12.88
2023-05-14T15:10:29.724Z,13.32
2023-05-14T15:12:59.533Z,13.15
2023-05-14T15:15:26.615Z,12.68
2023-05-14T15:17:53.153Z,14.03
2023-05-14T15:20:19.973Z,13.63
2023-05-14T15:22:46.467Z,13.35
2023-05-14T15:25:13.030Z,13.57
2023-05-14T15:27:39.453Z,13.70
2023-05-14T15:30:06.417Z,13.43
2023-05-14T15:32:33.188Z,12.45
2023-05-14T15:34:59.785Z,13.45
2023-05-14T15:37:26.207Z,13.45
2023-05-14T15:39:52.663Z,15.98
2023-05-14T15:42:19.737Z,12.60
2023-05-14T15:44:46.550Z,12.75
2023-05-14T15:47:12.943Z,11.82
2023-05-14T15:49:39.401Z,12.10
2023-05-14T15:52:06.032Z,13.90
2023-05-14T15:54:32.500Z,12.63
2023-05-14T15:56:59.012Z,12.45
2023-05-14T15:59:25.615Z,11.55
2023-05-14T16:01:52.147Z,11.80
2023-05-14T16:04:18.732Z,12.23
2023-05-14T16:06:45.335Z,12.20
2023-05-14T16:09:11.790Z,11.95
2023-05-14T16:11:38.254Z,13.88
2023-05-14T16:14:04.738Z,11.63
2023-05-14T16:16:31.233Z,13.60
2023-05-14T16:18:57.845Z,12.13
2023-05-14T16:21:24.342Z,12.18
2023-05-14T16:23:51.012Z,12.07
2023-05-14T16:26:17.517Z,12.52
2023-05-14T16:28:43.951Z,11.80
2023-05-14T16:31:10.498Z,11.13
2023-05-14T16:33:36.948Z,18.30
2023-05-14T16:36:03.551Z,12.18
2023-05-14T16:38:29.969Z,10.52
2023-05-14T16:40:56.478Z,12.15
2023-05-14T16:43:23.005Z,12.73
2023-05-14T16:45:49.451Z,13.52
2023-05-14T16:48:15.972Z,10.25
2023-05-14T16:50:42.313Z,13.13
2023-05-14T16:53:09.157Z,10.55
2023-05-14T16:55:35.752Z,11.57
2023-05-14T16:58:02.177Z,13.48
2023-05-14T17:00:28.586Z,14.90
2023-05-14T17:02:55.070Z,16.00
2023-05-14T17:05:21.870Z,12.40
2023-05-14T17:07:48.493Z,14.47
2023-05-14T17:10:15.055Z,9.60
2023-05-14T17:12:41.621Z,10.32
2023-05-14T17:15:08.429Z,10.52
2023-05-14T17:17:35.116Z,9.88
2023-05-14T17:20:01.713Z,9.00
2023-05-14T17:22:28.167Z,9.35
2023-05-14T17:24:54.797Z,11.25
2023-05-14T17:27:21.331Z,9.07
2023-05-14T17:29:50.997Z,11.20
2023-05-14T17:32:18.061Z,10.10
2023-05-14T17:34:44.622Z,9.57
2023-05-14T17:37:11.156Z,9.38
2023-05-14T17:39:37.887Z,8.95
2023-05-14T17:42:04.560Z,13.80
2023-05-14T17:44:31.316Z,9.00
2023-05-14T17:46:58.140Z,8.65
2023-05-14T17:49:24.645Z,9.88
2023-05-14T17:51:51.022Z,7.72
2023-05-14T17:54:17.547Z,11.20
2023-05-14T17:56:44.088Z,7.83
2023-05-14T17:59:10.534Z,8.02
2023-05-14T18:01:37.034Z,7.93
2023-05-14T18:04:03.614Z,9.48
2023-05-14T18:06:30.128Z,8.25
2023-05-14T18:08:56.912Z,7.37
2023-05-14T18:11:23.336Z,7.72
2023-05-14T18:13:49.942Z,8.48
2023-05-14T18:16:16.454Z,9.05
2023-05-14T18:18:43.012Z,8.98
2023-05-14T18:21:09.463Z,8.07
2023-05-14T18:23:35.884Z,7.38
2023-05-14T18:26:02.294Z,8.23
2023-05-14T18:28:28.755Z,7.95
2023-05-14T18:30:55.197Z,8.32
2023-05-14T18:33:21.660Z,8.03
2023-05-14T18:35:48.140Z,8.35
2023-05-14T18:38:15.204Z,8.50
2023-05-14T18:40:41.701Z,8.57
2023-05-14T18:43:08.236Z,8.52
2023-05-14T18:45:34.696Z,8.83
2023-05-14T18:48:01.210Z,9.52
2023-05-14T18:50:27.679Z,8.75
2023-05-14T18:52:54.122Z,8.27
2023-05-14T18:55:20.539Z,8.82
2023-05-14T18:57:47.036Z,9.27
2023-05-14T19:00:13.828Z,8.73
2023-05-14T19:02:40.378Z,7.22
2023-05-14T19:05:07.706Z,7.88
2023-05-14T19:07:34.321Z,9.40
2023-05-14T19:10:00.845Z,8.47
2023-05-14T19:12:27.425Z,8.60
2023-05-14T19:14:53.931Z,9.02
2023-05-14T19:17:20.685Z,7.53
2023-05-14T19:19:47.397Z,8.63
2023-05-14T19:22:13.960Z,7.60
2023-05-14T19:24:40.467Z,8.68
2023-05-14T19:27:06.855Z,7.97
2023-05-14T19:29:33.848Z,7.90
2023-05-14T19:32:00.425Z,7.80
2023-05-14T19:34:27.158Z,8.53
2023-05-14T19:36:53.632Z,8.07
2023-05-14T19:39:20.057Z,7.55
2023-05-14T19:41:46.529Z,7.80
2023-05-14T19:44:13.018Z,8.32
2023-05-14T19:46:39.554Z,7.90
2023-05-14T19:49:06.033Z,8.23
2023-05-14T19:51:32.466Z,8.25
2023-05-14T19:53:58.890Z,8.23
2023-05-14T19:56:27.120Z,8.20
2023-05-14T19:58:54.111Z,7.93
2023-05-14T20:01:21.104Z,7.97
2023-05-14T20:03:47.686Z,8.50
2023-05-14T20:06:14.396Z,8.95
2023-05-14T20:08:41.107Z,9.23
2023-05-14T20:11:07.706Z,8.53
2023-05-14T20:13:36.005Z,9.23
2023-05-14T20:16:02.592Z,9.45
2023-05-14T20:18:29.171Z,9.45
2023-05-14T20:20:55.978Z,9.35
2023-05-14T20:23:22.367Z,8.57
2023-05-14T20:25:48.916Z,9.82
2023-05-14T20:28:15.589Z,10.20
2023-05-14T20:30:42.499Z,9.07
2023-05-14T20:33:09.319Z,9.95
2023-05-14T20:35:36.093Z,10.97
2023-05-14T20:38:03.733Z,9.50
2023-05-14T20:40:30.300Z,11.40
2023-05-14T20:42:56.755Z,9.95
2023-05-14T20:45:23.388Z,11.00
2023-05-14T20:47:50.081Z,9.53
2023-05-14T20:50:16.535Z,10.75
2023-05-14T20:52:43.034Z,11.30
2023-05-14T20:55:09.658Z,12.50
2023-05-14T20:57:36.141Z,12.77
2023-05-14T21:00:07.015Z,11.50
2023-05-14T21:02:33.519Z,11.15
2023-05-14T21:05:00.059Z,12.55
2023-05-14T21:07:28.297Z,11.18
2023-05-14T21:09:55.327Z,13.52
2023-05-14T21:12:22.412Z,12.07
2023-05-14T21:14:48.859Z,13.02
2023-05-14T21:17:15.435Z,13.00
2023-05-14T21:19:41.920Z,13.27
2023-05-14T21:22:08.391Z,13.88
2023-05-14T21:24:35.052Z,12.33
2023-05-14T21:27:01.471Z,14.90
2023-05-14T21:29:27.876Z,13.93
2023-05-14T21:31:54.302Z,13.65
2023-05-14T21:34:20.882Z,14.75
2023-05-14T21:36:47.756Z,14.37
2023-05-14T21:39:14.214Z,14.80
2023-05-14T21:41:40.638Z,14.23
2023-05-14T21:44:07.082Z,14.52
2023-05-14T21:46:33.905Z,15.57
2023-05-14T21:49:00.693Z,15.13
2023-05-14T21:51:27.288Z,17.33
2023-05-14T21:53:53.938Z,16.48
2023-05-14T21:56:21.140Z,16.98
2023-05-14T21:58:47.675Z,16.73
2023-05-14T22:01:14.371Z,17.40
2023-05-14T22:03:40.976Z,17.38
2023-05-14T22:06:07.630Z,18.10
2023-05-14T22:08:34.159Z,15.98
2023-05-14T22:11:00.715Z,16.45
2023-05-14T22:13:27.221Z,15.93
2023-05-14T22:16:01.507Z,15.65
2023-05-14T22:18:38.786Z,17.83
2023-05-14T22:21:05.530Z,16.08
2023-05-14T22:23:31.985Z,16.65
2023-05-14T22:25:58.415Z,18.07
2023-05-14T22:28:24.890Z,17.98
2023-05-14T22:30:51.423Z,16.92
2023-05-14T22:33:19.371Z,17.52
2023-05-14T22:35:45.994Z,17.60
2023-05-14T22:38:12.824Z,17.03
2023-05-14T22:40:39.373Z,16.98
2023-05-14T22:43:05.822Z,19.63
2023-05-14T22:45:32.296Z,18.35
2023-05-14T22:47:58.800Z,20.27
2023-05-14T22:50:25.652Z,20.03
2023-05-14T22:52:52.072Z,20.60
2023-05-14T22:55:18.618Z,20.75
2023-05-14T22:57:45.040Z,20.77
2023-05-14T23:00:11.820Z,22.13
2023-05-14T23:02:39.405Z,20.80
2023-05-14T23:05:06.672Z,21.60
2023-05-14T23:07:33.143Z,21.67
2023-05-14T23:09:59.566Z,21.77
2023-05-14T23:12:26.107Z,21.20
2023-05-14T23:14:52.611Z,21.13
2023-05-14T23:17:19.076Z,22.50
2023-05-14T23:19:45.601Z,23.25
2023-05-14T23:22:12.523Z,22.77
2023-05-14T23:24:39.091Z,23.17
2023-05-14T23:27:05.712Z,22.60
2023-05-14T23:29:32.114Z,23.20
2023-05-14T23:31:58.645Z,23.63
2023-05-14T23:34:25.205Z,24.25
2023-05-14T23:36:51.773Z,24.10
2023-05-14T23:39:18.210Z,23.90
2023-05-14T23:41:44.710Z,24.05
2023-05-14T23:44:11.229Z,24.05
2023-05-14T23:46:37.761Z,24.58
2023-05-14T23:49:04.409Z,25.08
2023-05-14T23:51:30.797Z,24.43
2023-05-14T23:53:58.689Z,23.67
2023-05-14T23:56:25.922Z,24.88
2023-05-14T23:58:52.385Z,24.38
